sensor_id;sensor_type;location;lat;lon;timestamp;P1;durP1;ratioP1;P2;durP2;ratioP2
37280;SDS011;23169;41.804;12.596;2023-02-28T00:01:36;21.13;;;10.88;;
37280;SDS011;23169;41.804;12.596;2023-02-28T00:04:03;18.25;;;10.20;;
37280;SDS011;23169;41.804;12.596;2023-02-28T00:06:36;20.40;;;10.38;;
37280;SDS011;23169;41.804;12.596;2023-02-28T00:09:03;21.55;;;10.52;;
37280;SDS011;23169;41.804;12.596;2023-02-28T00:11:31;18.63;;;9.73;;
37280;SDS011;23169;41.804;12.596;2023-02-28T00:13:58;19.83;;;9.63;;
37280;SDS011;23169;41.804;12.596;2023-02-28T00:16:29;18.23;;;9.15;;
37280;SDS011;23169;41.804;12.596;2023-02-28T00:18:57;19.52;;;9.98;;
37280;SDS011;23169;41.804;12.596;2023-02-28T00:21:24;18.70;;;9.65;;
37280;SDS011;23169;41.804;12.596;2023-02-28T00:23:55;19.13;;;9.07;;
37280;SDS011;23169;41.804;12.596;2023-02-28T00:26:23;20.25;;;9.27;;
37280;SDS011;23169;41.804;12.596;2023-02-28T00:28:51;20.30;;;9.43;;
37280;SDS011;23169;41.804;12.596;2023-02-28T00:31:19;17.65;;;9.30;;
37280;SDS011;23169;41.804;12.596;2023-02-28T00:33:47;18.15;;;9.13;;
37280;SDS011;23169;41.804;12.596;2023-02-28T00:36:18;18.88;;;9.23;;
37280;SDS011;23169;41.804;12.596;2023-02-28T00:38:47;19.30;;;9.82;;
37280;SDS011;23169;41.804;12.596;2023-02-28T00:41:14;17.02;;;9.50;;
37280;SDS011;23169;41.804;12.596;2023-02-28T00:43:42;20.02;;;9.52;;
37280;SDS011;23169;41.804;12.596;2023-02-28T00:46:12;16.58;;;9.32;;
37280;SDS011;23169;41.804;12.596;2023-02-28T00:48:40;18.10;;;9.55;;
37280;SDS011;23169;41.804;12.596;2023-02-28T00:51:08;18.40;;;9.35;;
37280;SDS011;23169;41.804;12.596;2023-02-28T00:53:39;16.67;;;9.27;;
37280;SDS011;23169;41.804;12.596;2023-02-28T00:56:06;18.90;;;9.23;;
37280;SDS011;23169;41.804;12.596;2023-02-28T00:58:34;18.33;;;9.27;;
37280;SDS011;23169;41.804;12.596;2023-02-28T01:01:03;19.02;;;9.18;;
37280;SDS011;23169;41.804;12.596;2023-02-28T01:03:33;16.67;;;9.57;;
37280;SDS011;23169;41.804;12.596;2023-02-28T01:06:01;21.83;;;9.65;;
37280;SDS011;23169;41.804;12.596;2023-02-28T01:08:31;16.73;;;8.75;;
37280;SDS011;23169;41.804;12.596;2023-02-28T01:11:06;19.05;;;9.63;;
37280;SDS011;23169;41.804;12.596;2023-02-28T01:13:39;19.60;;;8.95;;
37280;SDS011;23169;41.804;12.596;2023-02-28T01:16:08;19.05;;;9.13;;
37280;SDS011;23169;41.804;12.596;2023-02-28T01:18:37;19.08;;;9.20;;
37280;SDS011;23169;41.804;12.596;2023-02-28T01:21:09;19.48;;;9.15;;
37280;SDS011;23169;41.804;12.596;2023-02-28T01:23:40;17.35;;;8.85;;
37280;SDS011;23169;41.804;12.596;2023-02-28T01:28:43;19.02;;;9.98;;
37280;SDS011;23169;41.804;12.596;2023-02-28T01:31:12;22.25;;;10.85;;
37280;SDS011;23169;41.804;12.596;2023-02-28T01:33:41;21.10;;;10.20;;
37280;SDS011;23169;41.804;12.596;2023-02-28T01:36:20;21.00;;;10.60;;
37280;SDS011;23169;41.804;12.596;2023-02-28T01:38:50;21.75;;;10.32;;
37280;SDS011;23169;41.804;12.596;2023-02-28T01:41:21;21.50;;;10.88;;
37280;SDS011;23169;41.804;12.596;2023-02-28T01:44:02;21.48;;;9.40;;
37280;SDS011;23169;41.804;12.596;2023-02-28T01:46:35;21.60;;;10.90;;
37280;SDS011;23169;41.804;12.596;2023-02-28T01:51:43;19.50;;;10.23;;
37280;SDS011;23169;41.804;12.596;2023-02-28T01:54:19;20.42;;;10.32;;
37280;SDS011;23169;41.804;12.596;2023-02-28T01:56:58;18.90;;;10.02;;
37280;SDS011;23169;41.804;12.596;2023-02-28T02:02:15;18.90;;;9.50;;
37280;SDS011;23169;41.804;12.596;2023-02-28T02:07:26;18.85;;;9.65;;
37280;SDS011;23169;41.804;12.596;2023-02-28T02:10:02;19.08;;;10.10;;
37280;SDS011;23169;41.804;12.596;2023-02-28T02:12:58;19.85;;;10.20;;
37280;SDS011;23169;41.804;12.596;2023-02-28T02:15:49;21.63;;;10.25;;
37280;SDS011;23169;41.804;12.596;2023-02-28T02:23:44;23.40;;;11.52;;
37280;SDS011;23169;41.804;12.596;2023-02-28T02:37:52;39.72;;;27.75;;
37280;SDS011;23169;41.804;12.596;2023-02-28T02:45:54;24.95;;;14.13;;
37280;SDS011;23169;41.804;12.596;2023-02-28T02:48:29;25.48;;;13.70;;
37280;SDS011;23169;41.804;12.596;2023-02-28T02:51:01;22.38;;;11.35;;
37280;SDS011;23169;41.804;12.596;2023-02-28T02:53:36;20.05;;;9.63;;
37280;SDS011;23169;41.804;12.596;2023-02-28T02:56:09;20.30;;;9.73;;
37280;SDS011;23169;41.804;12.596;2023-02-28T02:58:42;18.85;;;8.18;;
37280;SDS011;23169;41.804;12.596;2023-02-28T03:01:13;17.00;;;8.23;;
37280;SDS011;23169;41.804;12.596;2023-02-28T03:03:56;15.00;;;7.50;;
37280;SDS011;23169;41.804;12.596;2023-02-28T03:06:27;17.58;;;7.82;;
37280;SDS011;23169;41.804;12.596;2023-02-28T03:08:55;15.32;;;7.05;;
37280;SDS011;23169;41.804;12.596;2023-02-28T03:11:24;13.38;;;7.28;;
37280;SDS011;23169;41.804;12.596;2023-02-28T03:19:52;15.10;;;7.22;;
37280;SDS011;23169;41.804;12.596;2023-02-28T03:33:42;13.27;;;7.15;;
37280;SDS011;23169;41.804;12.596;2023-02-28T03:36:39;14.27;;;6.40;;
37280;SDS011;23169;41.804;12.596;2023-02-28T03:39:18;9.40;;;5.82;;
37280;SDS011;23169;41.804;12.596;2023-02-28T03:44:35;13.88;;;6.70;;
37280;SDS011;23169;41.804;12.596;2023-02-28T03:47:08;15.45;;;6.50;;
37280;SDS011;23169;41.804;12.596;2023-02-28T03:50:01;14.27;;;6.82;;
37280;SDS011;23169;41.804;12.596;2023-02-28T03:52:38;10.93;;;6.20;;
37280;SDS011;23169;41.804;12.596;2023-02-28T03:55:13;10.48;;;5.75;;
37280;SDS011;23169;41.804;12.596;2023-02-28T04:01:44;13.07;;;5.82;;
37280;SDS011;23169;41.804;12.596;2023-02-28T04:04:15;13.50;;;6.18;;
37280;SDS011;23169;41.804;12.596;2023-02-28T04:06:49;16.90;;;6.97;;
37280;SDS011;23169;41.804;12.596;2023-02-28T04:09:20;11.80;;;6.05;;
37280;SDS011;23169;41.804;12.596;2023-02-28T04:11:52;12.95;;;6.78;;
37280;SDS011;23169;41.804;12.596;2023-02-28T04:14:36;10.38;;;6.10;;
37280;SDS011;23169;41.804;12.596;2023-02-28T04:17:06;14.00;;;6.47;;
37280;SDS011;23169;41.804;12.596;2023-02-28T04:19:36;12.85;;;6.47;;
37280;SDS011;23169;41.804;12.596;2023-02-28T04:22:08;12.45;;;6.30;;
37280;SDS011;23169;41.804;12.596;2023-02-28T04:24:37;10.20;;;5.70;;
37280;SDS011;23169;41.804;12.596;2023-02-28T04:27:09;10.35;;;5.88;;
37280;SDS011;23169;41.804;12.596;2023-02-28T04:29:37;10.82;;;5.60;;
37280;SDS011;23169;41.804;12.596;2023-02-28T04:32:05;11.52;;;5.70;;
37280;SDS011;23169;41.804;12.596;2023-02-28T04:34:34;11.20;;;5.80;;
37280;SDS011;23169;41.804;12.596;2023-02-28T04:37:02;12.02;;;6.05;;
37280;SDS011;23169;41.804;12.596;2023-02-28T04:39:34;10.10;;;5.70;;
37280;SDS011;23169;41.804;12.596;2023-02-28T04:42:04;10.57;;;5.80;;
37280;SDS011;23169;41.804;12.596;2023-02-28T04:44:33;10.50;;;5.63;;
37280;SDS011;23169;41.804;12.596;2023-02-28T04:47:01;10.68;;;6.18;;
37280;SDS011;23169;41.804;12.596;2023-02-28T04:49:30;11.65;;;5.75;;
37280;SDS011;23169;41.804;12.596;2023-02-28T04:51:59;8.05;;;5.43;;
37280;SDS011;23169;41.804;12.596;2023-02-28T04:54:27;10.88;;;5.72;;
37280;SDS011;23169;41.804;12.596;2023-02-28T04:56:56;12.10;;;6.28;;
37280;SDS011;23169;41.804;12.596;2023-02-28T04:59:25;11.07;;;5.53;;
37280;SDS011;23169;41.804;12.596;2023-02-28T05:01:53;13.48;;;6.30;;
37280;SDS011;23169;41.804;12.596;2023-02-28T05:04:21;13.60;;;5.72;;
37280;SDS011;23169;41.804;12.596;2023-02-28T05:06:50;9.38;;;5.35;;
37280;SDS011;23169;41.804;12.596;2023-02-28T05:09:18;11.65;;;6.00;;
37280;SDS011;23169;41.804;12.596;2023-02-28T05:11:46;12.32;;;5.68;;
37280;SDS011;23169;41.804;12.596;2023-02-28T05:14:15;12.25;;;5.60;;
37280;SDS011;23169;41.804;12.596;2023-02-28T05:16:43;10.82;;;5.60;;
37280;SDS011;23169;41.804;12.596;2023-02-28T05:19:12;11.60;;;5.82;;
37280;SDS011;23169;41.804;12.596;2023-02-28T05:21:41;12.27;;;5.50;;
37280;SDS011;23169;41.804;12.596;2023-02-28T05:24:20;8.88;;;5.13;;
37280;SDS011;23169;41.804;12.596;2023-02-28T05:26:52;10.00;;;5.00;;
37280;SDS011;23169;41.804;12.596;2023-02-28T05:29:22;10.60;;;5.28;;
37280;SDS011;23169;41.804;12.596;2023-02-28T05:31:51;10.23;;;5.45;;
37280;SDS011;23169;41.804;12.596;2023-02-28T05:34:19;8.25;;;5.05;;
37280;SDS011;23169;41.804;12.596;2023-02-28T05:36:48;14.38;;;5.25;;
37280;SDS011;23169;41.804;12.596;2023-02-28T05:39:16;15.40;;;6.00;;
37280;SDS011;23169;41.804;12.596;2023-02-28T05:41:44;12.65;;;5.32;;
37280;SDS011;23169;41.804;12.596;2023-02-28T05:44:12;13.25;;;5.65;;
37280;SDS011;23169;41.804;12.596;2023-02-28T05:46:43;12.40;;;5.55;;
37280;SDS011;23169;41.804;12.596;2023-02-28T05:49:25;9.27;;;5.13;;
37280;SDS011;23169;41.804;12.596;2023-02-28T05:52:04;11.02;;;5.30;;
37280;SDS011;23169;41.804;12.596;2023-02-28T05:54:34;9.63;;;5.32;;
37280;SDS011;23169;41.804;12.596;2023-02-28T05:57:05;14.20;;;6.05;;
37280;SDS011;23169;41.804;12.596;2023-02-28T05:59:36;11.57;;;5.20;;
37280;SDS011;23169;41.804;12.596;2023-02-28T06:02:10;8.45;;;5.10;;
37280;SDS011;23169;41.804;12.596;2023-02-28T06:04:45;10.50;;;5.68;;
37280;SDS011;23169;41.804;12.596;2023-02-28T06:07:17;9.43;;;5.35;;
37280;SDS011;23169;41.804;12.596;2023-02-28T06:09:49;8.45;;;4.80;;
37280;SDS011;23169;41.804;12.596;2023-02-28T06:12:25;8.93;;;5.72;;
37280;SDS011;23169;41.804;12.596;2023-02-28T06:14:56;8.98;;;4.80;;
37280;SDS011;23169;41.804;12.596;2023-02-28T06:17:26;9.82;;;5.03;;
37280;SDS011;23169;41.804;12.596;2023-02-28T06:19:57;9.93;;;5.03;;
37280;SDS011;23169;41.804;12.596;2023-02-28T06:22:30;7.40;;;4.78;;
37280;SDS011;23169;41.804;12.596;2023-02-28T06:24:59;11.88;;;5.28;;
37280;SDS011;23169;41.804;12.596;2023-02-28T06:27:28;11.10;;;5.40;;
37280;SDS011;23169;41.804;12.596;2023-02-28T06:30:06;9.10;;;5.15;;
37280;SDS011;23169;41.804;12.596;2023-02-28T06:32:38;10.98;;;4.90;;
37280;SDS011;23169;41.804;12.596;2023-02-28T06:35:10;11.63;;;5.30;;
37280;SDS011;23169;41.804;12.596;2023-02-28T06:37:41;9.10;;;4.93;;
37280;SDS011;23169;41.804;12.596;2023-02-28T06:40:11;9.38;;;5.13;;
37280;SDS011;23169;41.804;12.596;2023-02-28T06:42:41;9.98;;;4.90;;
37280;SDS011;23169;41.804;12.596;2023-02-28T06:45:11;7.30;;;5.05;;
37280;SDS011;23169;41.804;12.596;2023-02-28T06:47:42;10.48;;;5.05;;
37280;SDS011;23169;41.804;12.596;2023-02-28T06:50:12;8.02;;;4.85;;
37280;SDS011;23169;41.804;12.596;2023-02-28T06:52:44;11.98;;;5.22;;
37280;SDS011;23169;41.804;12.596;2023-02-28T06:55:14;9.27;;;5.10;;
37280;SDS011;23169;41.804;12.596;2023-02-28T06:57:46;8.20;;;4.53;;
37280;SDS011;23169;41.804;12.596;2023-02-28T07:00:18;7.18;;;4.57;;
37280;SDS011;23169;41.804;12.596;2023-02-28T07:02:47;10.77;;;4.68;;
37280;SDS011;23169;41.804;12.596;2023-02-28T07:05:16;12.10;;;5.13;;
37280;SDS011;23169;41.804;12.596;2023-02-28T07:07:45;7.68;;;4.68;;
37280;SDS011;23169;41.804;12.596;2023-02-28T07:10:18;10.73;;;5.05;;
37280;SDS011;23169;41.804;12.596;2023-02-28T07:12:50;8.82;;;4.45;;
37280;SDS011;23169;41.804;12.596;2023-02-28T07:15:19;12.02;;;4.57;;
37280;SDS011;23169;41.804;12.596;2023-02-28T07:17:48;6.55;;;4.30;;
37280;SDS011;23169;41.804;12.596;2023-02-28T07:20:17;10.77;;;4.30;;
37280;SDS011;23169;41.804;12.596;2023-02-28T07:22:46;9.30;;;4.13;;
37280;SDS011;23169;41.804;12.596;2023-02-28T07:25:27;7.50;;;3.88;;
37280;SDS011;23169;41.804;12.596;2023-02-28T07:27:59;8.82;;;5.00;;
37280;SDS011;23169;41.804;12.596;2023-02-28T07:30:28;8.98;;;4.30;;
37280;SDS011;23169;41.804;12.596;2023-02-28T07:32:56;5.13;;;3.67;;
37280;SDS011;23169;41.804;12.596;2023-02-28T07:35:26;6.60;;;3.72;;
37280;SDS011;23169;41.804;12.596;2023-02-28T07:38:00;8.40;;;4.07;;
37280;SDS011;23169;41.804;12.596;2023-02-28T07:40:34;7.30;;;3.90;;
37280;SDS011;23169;41.804;12.596;2023-02-28T07:43:04;7.93;;;3.17;;
37280;SDS011;23169;41.804;12.596;2023-02-28T07:45:38;7.35;;;4.20;;
37280;SDS011;23169;41.804;12.596;2023-02-28T07:48:06;5.93;;;3.53;;
37280;SDS011;23169;41.804;12.596;2023-02-28T07:50:37;5.25;;;3.60;;
37280;SDS011;23169;41.804;12.596;2023-02-28T07:53:05;7.13;;;2.92;;
37280;SDS011;23169;41.804;12.596;2023-02-28T07:55:34;5.78;;;3.47;;
37280;SDS011;23169;41.804;12.596;2023-02-28T07:58:02;7.20;;;3.90;;
37280;SDS011;23169;41.804;12.596;2023-02-28T08:00:32;8.88;;;3.78;;
37280;SDS011;23169;41.804;12.596;2023-02-28T08:03:00;9.85;;;4.63;;
37280;SDS011;23169;41.804;12.596;2023-02-28T08:05:29;8.02;;;3.97;;
37280;SDS011;23169;41.804;12.596;2023-02-28T08:07:58;6.30;;;3.80;;
37280;SDS011;23169;41.804;12.596;2023-02-28T08:10:28;6.22;;;4.13;;
37280;SDS011;23169;41.804;12.596;2023-02-28T08:12:56;11.60;;;4.55;;
37280;SDS011;23169;41.804;12.596;2023-02-28T08:15:25;11.23;;;4.82;;
37280;SDS011;23169;41.804;12.596;2023-02-28T08:17:53;9.30;;;4.60;;
37280;SDS011;23169;41.804;12.596;2023-02-28T08:20:24;12.07;;;4.28;;
37280;SDS011;23169;41.804;12.596;2023-02-28T08:22:53;6.28;;;3.47;;
37280;SDS011;23169;41.804;12.596;2023-02-28T08:25:21;4.95;;;3.45;;
37280;SDS011;23169;41.804;12.596;2023-02-28T08:27:51;7.93;;;3.65;;
37280;SDS011;23169;41.804;12.596;2023-02-28T08:30:20;6.60;;;3.28;;
37280;SDS011;23169;41.804;12.596;2023-02-28T08:32:48;7.68;;;3.50;;
37280;SDS011;23169;41.804;12.596;2023-02-28T08:35:16;6.18;;;3.10;;
37280;SDS011;23169;41.804;12.596;2023-02-28T08:37:47;8.60;;;2.90;;
37280;SDS011;23169;41.804;12.596;2023-02-28T08:40:16;8.60;;;3.03;;
37280;SDS011;23169;41.804;12.596;2023-02-28T08:42:46;6.47;;;2.60;;
37280;SDS011;23169;41.804;12.596;2023-02-28T08:45:15;8.15;;;2.30;;
37280;SDS011;23169;41.804;12.596;2023-02-28T08:47:43;3.00;;;2.10;;
37280;SDS011;23169;41.804;12.596;2023-02-28T08:50:12;4.90;;;2.17;;
37280;SDS011;23169;41.804;12.596;2023-02-28T08:52:43;3.08;;;1.92;;
37280;SDS011;23169;41.804;12.596;2023-02-28T08:55:11;3.72;;;2.22;;
37280;SDS011;23169;41.804;12.596;2023-02-28T08:57:39;2.63;;;2.00;;
37280;SDS011;23169;41.804;12.596;2023-02-28T09:00:07;6.20;;;2.03;;
37280;SDS011;23169;41.804;12.596;2023-02-28T09:02:38;4.43;;;2.17;;
37280;SDS011;23169;41.804;12.596;2023-02-28T09:05:06;2.88;;;1.95;;
37280;SDS011;23169;41.804;12.596;2023-02-28T09:07:35;2.88;;;1.98;;
37280;SDS011;23169;41.804;12.596;2023-02-28T09:10:04;2.15;;;1.67;;
37280;SDS011;23169;41.804;12.596;2023-02-28T09:12:33;8.73;;;2.40;;
37280;SDS011;23169;41.804;12.596;2023-02-28T09:15:03;4.75;;;2.08;;
37280;SDS011;23169;41.804;12.596;2023-02-28T09:17:31;5.55;;;1.92;;
37280;SDS011;23169;41.804;12.596;2023-02-28T09:20:00;5.28;;;2.05;;
37280;SDS011;23169;41.804;12.596;2023-02-28T09:22:29;4.32;;;2.10;;
37280;SDS011;23169;41.804;12.596;2023-02-28T09:24:57;3.35;;;2.20;;
37280;SDS011;23169;41.804;12.596;2023-02-28T09:27:25;5.82;;;2.15;;
37280;SDS011;23169;41.804;12.596;2023-02-28T09:29:54;5.22;;;2.15;;
37280;SDS011;23169;41.804;12.596;2023-02-28T09:32:22;3.78;;;1.73;;
37280;SDS011;23169;41.804;12.596;2023-02-28T09:34:50;7.00;;;3.05;;
37280;SDS011;23169;41.804;12.596;2023-02-28T09:37:20;5.82;;;2.47;;
37280;SDS011;23169;41.804;12.596;2023-02-28T09:39:49;4.97;;;2.00;;
37280;SDS011;23169;41.804;12.596;2023-02-28T09:42:19;3.88;;;1.83;;
37280;SDS011;23169;41.804;12.596;2023-02-28T09:44:52;5.00;;;2.10;;
37280;SDS011;23169;41.804;12.596;2023-02-28T09:49:59;6.25;;;1.85;;
37280;SDS011;23169;41.804;12.596;2023-02-28T09:52:36;5.38;;;2.25;;
37280;SDS011;23169;41.804;12.596;2023-02-28T09:55:48;6.95;;;2.17;;
37280;SDS011;23169;41.804;12.596;2023-02-28T09:58:04;5.85;;;2.13;;
37280;SDS011;23169;41.804;12.596;2023-02-28T10:00:39;5.55;;;2.13;;
37280;SDS011;23169;41.804;12.596;2023-02-28T10:14:01;3.33;;;1.85;;
37280;SDS011;23169;41.804;12.596;2023-02-28T10:16:48;5.03;;;2.10;;
37280;SDS011;23169;41.804;12.596;2023-02-28T10:19:28;4.60;;;1.75;;
37280;SDS011;23169;41.804;12.596;2023-02-28T10:25:00;5.18;;;1.92;;
37280;SDS011;23169;41.804;12.596;2023-02-28T10:27:31;4.60;;;2.05;;
37280;SDS011;23169;41.804;12.596;2023-02-28T10:30:00;9.27;;;2.15;;
37280;SDS011;23169;41.804;12.596;2023-02-28T10:32:34;3.63;;;2.03;;
37280;SDS011;23169;41.804;12.596;2023-02-28T10:35:10;8.27;;;2.08;;
37280;SDS011;23169;41.804;12.596;2023-02-28T10:37:46;5.75;;;1.92;;
37280;SDS011;23169;41.804;12.596;2023-02-28T10:43:01;5.40;;;2.67;;
37280;SDS011;23169;41.804;12.596;2023-02-28T10:45:35;4.75;;;2.40;;
37280;SDS011;23169;41.804;12.596;2023-02-28T10:48:06;3.92;;;2.00;;
37280;SDS011;23169;41.804;12.596;2023-02-28T10:50:45;6.13;;;2.15;;
37280;SDS011;23169;41.804;12.596;2023-02-28T11:01:41;6.53;;;2.50;;
37280;SDS011;23169;41.804;12.596;2023-02-28T11:07:17;7.85;;;2.92;;
37280;SDS011;23169;41.804;12.596;2023-02-28T11:09:48;4.35;;;2.42;;
37280;SDS011;23169;41.804;12.596;2023-02-28T11:12:25;4.63;;;2.53;;
37280;SDS011;23169;41.804;12.596;2023-02-28T11:15:01;7.07;;;2.80;;
37280;SDS011;23169;41.804;12.596;2023-02-28T11:17:42;7.25;;;2.35;;
37280;SDS011;23169;41.804;12.596;2023-02-28T11:20:17;5.65;;;2.88;;
37280;SDS011;23169;41.804;12.596;2023-02-28T11:22:50;11.90;;;3.33;;
37280;SDS011;23169;41.804;12.596;2023-02-28T11:25:21;6.22;;;2.97;;
37280;SDS011;23169;41.804;12.596;2023-02-28T11:27:53;4.43;;;2.40;;
37280;SDS011;23169;41.804;12.596;2023-02-28T11:30:31;7.53;;;2.72;;
37280;SDS011;23169;41.804;12.596;2023-02-28T11:33:25;5.97;;;2.33;;
37280;SDS011;23169;41.804;12.596;2023-02-28T11:38:55;11.15;;;4.30;;
37280;SDS011;23169;41.804;12.596;2023-02-28T11:41:43;6.53;;;2.30;;
37280;SDS011;23169;41.804;12.596;2023-02-28T11:44:23;10.38;;;4.45;;
37280;SDS011;23169;41.804;12.596;2023-02-28T11:47:17;15.32;;;4.65;;
37280;SDS011;23169;41.804;12.596;2023-02-28T11:52:57;3.83;;;2.25;;
37280;SDS011;23169;41.804;12.596;2023-02-28T11:55:37;8.75;;;2.65;;
37280;SDS011;23169;41.804;12.596;2023-02-28T12:06:27;5.18;;;1.88;;
37280;SDS011;23169;41.804;12.596;2023-02-28T12:17:35;7.00;;;1.80;;
37280;SDS011;23169;41.804;12.596;2023-02-28T12:29:10;11.48;;;2.00;;
37280;SDS011;23169;41.804;12.596;2023-02-28T12:32:05;10.57;;;2.42;;
37280;SDS011;23169;41.804;12.596;2023-02-28T12:34:46;6.20;;;2.10;;
37280;SDS011;23169;41.804;12.596;2023-02-28T12:37:22;7.23;;;2.00;;
37280;SDS011;23169;41.804;12.596;2023-02-28T12:40:00;9.38;;;2.90;;
37280;SDS011;23169;41.804;12.596;2023-02-28T12:42:39;7.88;;;2.45;;
37280;SDS011;23169;41.804;12.596;2023-02-28T12:45:22;9.40;;;2.92;;
37280;SDS011;23169;41.804;12.596;2023-02-28T12:47:55;10.52;;;2.35;;
37280;SDS011;23169;41.804;12.596;2023-02-28T12:50:29;12.30;;;2.47;;
37280;SDS011;23169;41.804;12.596;2023-02-28T12:55:48;11.75;;;2.85;;
37280;SDS011;23169;41.804;12.596;2023-02-28T12:58:48;7.13;;;3.03;;
37280;SDS011;23169;41.804;12.596;2023-02-28T13:01:26;16.05;;;4.13;;
37280;SDS011;23169;41.804;12.596;2023-02-28T13:09:36;7.03;;;3.10;;
37280;SDS011;23169;41.804;12.596;2023-02-28T13:12:13;10.68;;;3.85;;
37280;SDS011;23169;41.804;12.596;2023-02-28T13:14:43;13.47;;;3.50;;
37280;SDS011;23169;41.804;12.596;2023-02-28T13:17:14;16.98;;;5.45;;
37280;SDS011;23169;41.804;12.596;2023-02-28T13:22:40;13.25;;;4.75;;
37280;SDS011;23169;41.804;12.596;2023-02-28T13:28:01;12.32;;;3.95;;
37280;SDS011;23169;41.804;12.596;2023-02-28T13:33:33;12.75;;;2.55;;
37280;SDS011;23169;41.804;12.596;2023-02-28T13:38:42;15.88;;;4.00;;
37280;SDS011;23169;41.804;12.596;2023-02-28T13:44:04;11.10;;;3.63;;
37280;SDS011;23169;41.804;12.596;2023-02-28T14:03:14;13.80;;;3.60;;
37280;SDS011;23169;41.804;12.596;2023-02-28T14:05:46;14.32;;;3.80;;
37280;SDS011;23169;41.804;12.596;2023-02-28T14:08:16;19.40;;;4.95;;
37280;SDS011;23169;41.804;12.596;2023-02-28T14:10:50;11.43;;;3.63;;
37280;SDS011;23169;41.804;12.596;2023-02-28T14:13:38;10.35;;;3.72;;
37280;SDS011;23169;41.804;12.596;2023-02-28T14:16:20;10.70;;;4.20;;
37280;SDS011;23169;41.804;12.596;2023-02-28T14:18:59;12.98;;;3.47;;
37280;SDS011;23169;41.804;12.596;2023-02-28T14:30:14;13.05;;;4.53;;
37280;SDS011;23169;41.804;12.596;2023-02-28T14:36:10;14.38;;;4.22;;
37280;SDS011;23169;41.804;12.596;2023-02-28T14:38:48;13.57;;;3.85;;
37280;SDS011;23169;41.804;12.596;2023-02-28T14:43:56;10.25;;;4.55;;
37280;SDS011;23169;41.804;12.596;2023-02-28T14:46:35;12.45;;;4.30;;
37280;SDS011;23169;41.804;12.596;2023-02-28T14:49:06;13.45;;;4.60;;
37280;SDS011;23169;41.804;12.596;2023-02-28T14:51:40;10.57;;;3.60;;
37280;SDS011;23169;41.804;12.596;2023-02-28T14:54:12;14.77;;;4.38;;
37280;SDS011;23169;41.804;12.596;2023-02-28T14:56:44;13.75;;;3.78;;
37280;SDS011;23169;41.804;12.596;2023-02-28T14:59:25;10.52;;;3.80;;
37280;SDS011;23169;41.804;12.596;2023-02-28T15:04:56;10.07;;;4.13;;
37280;SDS011;23169;41.804;12.596;2023-02-28T15:07:27;12.80;;;3.67;;
37280;SDS011;23169;41.804;12.596;2023-02-28T15:12:53;15.05;;;4.22;;
37280;SDS011;23169;41.804;12.596;2023-02-28T15:18:32;15.15;;;4.30;;
37280;SDS011;23169;41.804;12.596;2023-02-28T15:21:15;11.00;;;4.50;;
37280;SDS011;23169;41.804;12.596;2023-02-28T15:23:51;11.75;;;4.22;;
37280;SDS011;23169;41.804;12.596;2023-02-28T15:26:25;13.90;;;4.10;;
37280;SDS011;23169;41.804;12.596;2023-02-28T15:29:04;9.65;;;3.78;;
37280;SDS011;23169;41.804;12.596;2023-02-28T15:31:35;13.27;;;4.18;;
37280;SDS011;23169;41.804;12.596;2023-02-28T15:34:18;10.23;;;3.60;;
37280;SDS011;23169;41.804;12.596;2023-02-28T15:36:49;12.63;;;3.88;;
37280;SDS011;23169;41.804;12.596;2023-02-28T15:39:20;11.20;;;4.03;;
37280;SDS011;23169;41.804;12.596;2023-02-28T15:41:51;11.73;;;4.28;;
37280;SDS011;23169;41.804;12.596;2023-02-28T15:44:38;8.23;;;4.10;;
37280;SDS011;23169;41.804;12.596;2023-02-28T15:47:14;10.63;;;4.13;;
37280;SDS011;23169;41.804;12.596;2023-02-28T15:49:51;14.27;;;4.05;;
37280;SDS011;23169;41.804;12.596;2023-02-28T15:55:08;10.40;;;4.13;;
37280;SDS011;23169;41.804;12.596;2023-02-28T15:57:44;11.98;;;4.00;;
37280;SDS011;23169;41.804;12.596;2023-02-28T16:00:15;12.75;;;3.97;;
37280;SDS011;23169;41.804;12.596;2023-02-28T16:02:46;13.25;;;4.55;;
37280;SDS011;23169;41.804;12.596;2023-02-28T16:05:28;13.10;;;4.25;;
37280;SDS011;23169;41.804;12.596;2023-02-28T16:08:11;13.05;;;4.30;;
37280;SDS011;23169;41.804;12.596;2023-02-28T16:10:43;8.07;;;3.70;;
37280;SDS011;23169;41.804;12.596;2023-02-28T16:13:11;9.13;;;3.80;;
37280;SDS011;23169;41.804;12.596;2023-02-28T16:15:43;6.75;;;3.08;;
37280;SDS011;23169;41.804;12.596;2023-02-28T16:18:12;9.00;;;3.28;;
37280;SDS011;23169;41.804;12.596;2023-02-28T16:20:42;6.38;;;3.05;;
37280;SDS011;23169;41.804;12.596;2023-02-28T16:23:12;8.70;;;3.38;;
37280;SDS011;23169;41.804;12.596;2023-02-28T16:25:41;8.73;;;3.10;;
37280;SDS011;23169;41.804;12.596;2023-02-28T16:28:21;8.70;;;2.95;;
37280;SDS011;23169;41.804;12.596;2023-02-28T16:30:51;7.85;;;2.85;;
37280;SDS011;23169;41.804;12.596;2023-02-28T16:33:20;5.90;;;2.80;;
37280;SDS011;23169;41.804;12.596;2023-02-28T16:35:49;5.57;;;2.20;;
37280;SDS011;23169;41.804;12.596;2023-02-28T16:38:18;5.90;;;2.30;;
37280;SDS011;23169;41.804;12.596;2023-02-28T16:40:47;7.15;;;2.65;;
37280;SDS011;23169;41.804;12.596;2023-02-28T16:43:19;10.77;;;2.83;;
37280;SDS011;23169;41.804;12.596;2023-02-28T16:45:56;5.22;;;2.25;;
37280;SDS011;23169;41.804;12.596;2023-02-28T16:48:30;8.40;;;2.85;;
37280;SDS011;23169;41.804;12.596;2023-02-28T16:50:59;7.60;;;2.83;;
37280;SDS011;23169;41.804;12.596;2023-02-28T16:53:27;5.78;;;3.13;;
37280;SDS011;23169;41.804;12.596;2023-02-28T16:55:56;6.30;;;3.20;;
37280;SDS011;23169;41.804;12.596;2023-02-28T16:58:24;5.25;;;3.00;;
37280;SDS011;23169;41.804;12.596;2023-02-28T17:00:55;7.55;;;2.85;;
37280;SDS011;23169;41.804;12.596;2023-02-28T17:03:25;4.55;;;2.42;;
37280;SDS011;23169;41.804;12.596;2023-02-28T17:05:54;6.53;;;3.45;;
37280;SDS011;23169;41.804;12.596;2023-02-28T17:08:23;5.35;;;2.80;;
37280;SDS011;23169;41.804;12.596;2023-02-28T17:10:52;4.70;;;2.80;;
37280;SDS011;23169;41.804;12.596;2023-02-28T17:13:20;4.95;;;2.13;;
37280;SDS011;23169;41.804;12.596;2023-02-28T17:15:49;6.68;;;2.78;;
37280;SDS011;23169;41.804;12.596;2023-02-28T17:18:18;4.82;;;2.65;;
37280;SDS011;23169;41.804;12.596;2023-02-28T17:20:48;3.08;;;2.20;;
37280;SDS011;23169;41.804;12.596;2023-02-28T17:23:18;5.85;;;3.25;;
37280;SDS011;23169;41.804;12.596;2023-02-28T17:25:46;5.40;;;2.53;;
37280;SDS011;23169;41.804;12.596;2023-02-28T17:28:21;6.57;;;3.03;;
37280;SDS011;23169;41.804;12.596;2023-02-28T17:30:50;3.97;;;2.25;;
37280;SDS011;23169;41.804;12.596;2023-02-28T17:33:18;7.30;;;2.90;;
37280;SDS011;23169;41.804;12.596;2023-02-28T17:35:47;9.63;;;3.28;;
37280;SDS011;23169;41.804;12.596;2023-02-28T17:38:16;4.78;;;3.20;;
37280;SDS011;23169;41.804;12.596;2023-02-28T17:40:46;8.10;;;3.13;;
37280;SDS011;23169;41.804;12.596;2023-02-28T17:43:15;5.90;;;2.85;;
37280;SDS011;23169;41.804;12.596;2023-02-28T17:45:43;3.03;;;2.50;;
37280;SDS011;23169;41.804;12.596;2023-02-28T17:48:13;6.28;;;3.08;;
37280;SDS011;23169;41.804;12.596;2023-02-28T17:50:42;6.80;;;3.38;;
37280;SDS011;23169;41.804;12.596;2023-02-28T17:53:11;2.10;;;1.98;;
37280;SDS011;23169;41.804;12.596;2023-02-28T17:55:40;5.25;;;2.80;;
37280;SDS011;23169;41.804;12.596;2023-02-28T17:58:09;3.97;;;2.60;;
37280;SDS011;23169;41.804;12.596;2023-02-28T18:00:42;7.65;;;3.55;;